sensor_id;sensor_type;location;lat;lon;timestamp;P1;durP1;ratioP1;P2;durP2;ratioP2
15266;SDS011;7735;49.144;8.668;2023-05-29T00:02:24;5.13;;;3.67;;
15266;SDS011;7735;49.144;8.668;2023-05-29T00:04:50;6.33;;;3.57;;
15266;SDS011;7735;49.144;8.668;2023-05-29T00:07:17;4.60;;;3.03;;
15266;SDS011;7735;49.144;8.668;2023-05-29T00:09:44;7.50;;;3.57;;
15266;SDS011;7735;49.144;8.668;2023-05-29T00:12:12;6.30;;;3.57;;
15266;SDS011;7735;49.144;8.668;2023-05-29T00:14:38;5.23;;;2.77;;
15266;SDS011;7735;49.144;8.668;2023-05-29T00:17:05;4.97;;;3.20;;
15266;SDS011;7735;49.144;8.668;2023-05-29T00:19:32;5.23;;;3.60;;
15266;SDS011;7735;49.144;8.668;2023-05-29T00:21:58;5.83;;;3.27;;
15266;SDS011;7735;49.144;8.668;2023-05-29T00:24:25;7.33;;;3.13;;
15266;SDS011;7735;49.144;8.668;2023-05-29T00:26:52;5.67;;;3.77;;
15266;SDS011;7735;49.144;8.668;2023-05-29T00:29:19;6.93;;;3.67;;
15266;SDS011;7735;49.144;8.668;2023-05-29T00:31:47;8.07;;;2.97;;
15266;SDS011;7735;49.144;8.668;2023-05-29T00:34:13;5.73;;;3.13;;
15266;SDS011;7735;49.144;8.668;2023-05-29T00:36:40;6.03;;;3.40;;
15266;SDS011;7735;49.144;8.668;2023-05-29T00:39:07;7.03;;;3.63;;
15266;SDS011;7735;49.144;8.668;2023-05-29T00:41:34;6.77;;;3.50;;
15266;SDS011;7735;49.144;8.668;2023-05-29T00:44:04;5.00;;;3.17;;
15266;SDS011;7735;49.144;8.668;2023-05-29T00:46:32;4.10;;;2.70;;
15266;SDS011;7735;49.144;8.668;2023-05-29T00:48:59;6.73;;;3.00;;
15266;SDS011;7735;49.144;8.668;2023-05-29T00:51:27;5.50;;;2.83;;
15266;SDS011;7735;49.144;8.668;2023-05-29T00:53:56;5.10;;;3.10;;
15266;SDS011;7735;49.144;8.668;2023-05-29T00:56:24;6.40;;;2.63;;
15266;SDS011;7735;49.144;8.668;2023-05-29T00:58:52;5.30;;;2.67;;
15266;SDS011;7735;49.144;8.668;2023-05-29T01:01:19;5.73;;;3.00;;
15266;SDS011;7735;49.144;8.668;2023-05-29T01:03:49;7.80;;;3.40;;
15266;SDS011;7735;49.144;8.668;2023-05-29T01:06:18;5.53;;;2.87;;
15266;SDS011;7735;49.144;8.668;2023-05-29T01:08:45;6.60;;;3.07;;
15266;SDS011;7735;49.144;8.668;2023-05-29T01:11:12;6.10;;;3.40;;
15266;SDS011;7735;49.144;8.668;2023-05-29T01:13:46;6.13;;;2.97;;
15266;SDS011;7735;49.144;8.668;2023-05-29T01:16:16;4.50;;;3.30;;
15266;SDS011;7735;49.144;8.668;2023-05-29T01:18:54;7.37;;;3.23;;
15266;SDS011;7735;49.144;8.668;2023-05-29T01:21:27;7.67;;;3.33;;
15266;SDS011;7735;49.144;8.668;2023-05-29T01:24:13;4.97;;;2.87;;
15266;SDS011;7735;49.144;8.668;2023-05-29T01:26:48;5.60;;;3.17;;
15266;SDS011;7735;49.144;8.668;2023-05-29T01:29:18;4.60;;;2.97;;
15266;SDS011;7735;49.144;8.668;2023-05-29T01:31:48;4.87;;;2.83;;
15266;SDS011;7735;49.144;8.668;2023-05-29T01:34:16;5.37;;;3.10;;
15266;SDS011;7735;49.144;8.668;2023-05-29T01:36:43;4.47;;;2.70;;
15266;SDS011;7735;49.144;8.668;2023-05-29T01:39:11;5.07;;;2.80;;
15266;SDS011;7735;49.144;8.668;2023-05-29T01:41:38;5.30;;;3.17;;
15266;SDS011;7735;49.144;8.668;2023-05-29T01:44:08;5.17;;;3.17;;
15266;SDS011;7735;49.144;8.668;2023-05-29T01:46:36;4.90;;;2.63;;
15266;SDS011;7735;49.144;8.668;2023-05-29T01:49:03;4.57;;;2.90;;
15266;SDS011;7735;49.144;8.668;2023-05-29T01:51:31;4.80;;;2.93;;
15266;SDS011;7735;49.144;8.668;2023-05-29T01:53:58;3.77;;;2.57;;
15266;SDS011;7735;49.144;8.668;2023-05-29T01:56:26;6.33;;;2.90;;
15266;SDS011;7735;49.144;8.668;2023-05-29T01:58:54;4.17;;;3.00;;
15266;SDS011;7735;49.144;8.668;2023-05-29T02:01:22;4.80;;;3.10;;
15266;SDS011;7735;49.144;8.668;2023-05-29T02:03:49;4.00;;;2.80;;
15266;SDS011;7735;49.144;8.668;2023-05-29T02:06:17;4.03;;;2.77;;
15266;SDS011;7735;49.144;8.668;2023-05-29T02:08:44;3.43;;;2.47;;
15266;SDS011;7735;49.144;8.668;2023-05-29T02:11:10;3.47;;;2.57;;
15266;SDS011;7735;49.144;8.668;2023-05-29T02:13:37;5.40;;;2.83;;
15266;SDS011;7735;49.144;8.668;2023-05-29T02:16:04;4.50;;;2.70;;
15266;SDS011;7735;49.144;8.668;2023-05-29T02:18:32;5.70;;;2.77;;
15266;SDS011;7735;49.144;8.668;2023-05-29T02:21:00;4.87;;;2.73;;
15266;SDS011;7735;49.144;8.668;2023-05-29T02:23:27;6.40;;;2.80;;
15266;SDS011;7735;49.144;8.668;2023-05-29T02:25:53;6.10;;;2.70;;
15266;SDS011;7735;49.144;8.668;2023-05-29T02:28:20;3.03;;;2.07;;
15266;SDS011;7735;49.144;8.668;2023-05-29T02:30:46;3.90;;;2.40;;
15266;SDS011;7735;49.144;8.668;2023-05-29T02:33:13;6.00;;;2.90;;
15266;SDS011;7735;49.144;8.668;2023-05-29T02:35:42;7.50;;;2.57;;
15266;SDS011;7735;49.144;8.668;2023-05-29T02:38:08;4.87;;;2.70;;
15266;SDS011;7735;49.144;8.668;2023-05-29T02:40:35;3.40;;;2.40;;
15266;SDS011;7735;49.144;8.668;2023-05-29T02:43:02;3.50;;;2.50;;
15266;SDS011;7735;49.144;8.668;2023-05-29T02:45:28;4.57;;;2.97;;
15266;SDS011;7735;49.144;8.668;2023-05-29T02:47:55;4.53;;;2.70;;
15266;SDS011;7735;49.144;8.668;2023-05-29T02:50:21;5.43;;;2.53;;
15266;SDS011;7735;49.144;8.668;2023-05-29T02:52:49;3.87;;;2.40;;
15266;SDS011;7735;49.144;8.668;2023-05-29T02:55:16;4.30;;;2.60;;
15266;SDS011;7735;49.144;8.668;2023-05-29T02:57:43;5.67;;;2.73;;
15266;SDS011;7735;49.144;8.668;2023-05-29T03:00:10;4.17;;;2.83;;
15266;SDS011;7735;49.144;8.668;2023-05-29T03:02:38;3.93;;;2.67;;
15266;SDS011;7735;49.144;8.668;2023-05-29T03:05:05;4.23;;;2.70;;
15266;SDS011;7735;49.144;8.668;2023-05-29T03:07:32;4.50;;;2.50;;
15266;SDS011;7735;49.144;8.668;2023-05-29T03:10:00;4.00;;;2.77;;
15266;SDS011;7735;49.144;8.668;2023-05-29T03:12:29;3.77;;;2.53;;
15266;SDS011;7735;49.144;8.668;2023-05-29T03:14:55;4.17;;;2.60;;
15266;SDS011;7735;49.144;8.668;2023-05-29T03:17:22;5.40;;;2.90;;
15266;SDS011;7735;49.144;8.668;2023-05-29T03:19:48;5.10;;;2.80;;
15266;SDS011;7735;49.144;8.668;2023-05-29T03:22:16;3.77;;;2.30;;
15266;SDS011;7735;49.144;8.668;2023-05-29T03:24:42;4.40;;;2.43;;
15266;SDS011;7735;49.144;8.668;2023-05-29T03:27:10;3.90;;;2.50;;
15266;SDS011;7735;49.144;8.668;2023-05-29T03:29:37;3.53;;;2.70;;
15266;SDS011;7735;49.144;8.668;2023-05-29T03:32:03;4.57;;;2.67;;
15266;SDS011;7735;49.144;8.668;2023-05-29T03:34:31;3.30;;;2.33;;
15266;SDS011;7735;49.144;8.668;2023-05-29T03:36:57;3.67;;;2.30;;
15266;SDS011;7735;49.144;8.668;2023-05-29T03:39:24;4.10;;;2.90;;
15266;SDS011;7735;49.144;8.668;2023-05-29T03:41:50;4.33;;;3.00;;
15266;SDS011;7735;49.144;8.668;2023-05-29T03:44:18;3.63;;;2.43;;
15266;SDS011;7735;49.144;8.668;2023-05-29T03:46:45;3.87;;;2.50;;
15266;SDS011;7735;49.144;8.668;2023-05-29T03:49:12;3.93;;;2.70;;
15266;SDS011;7735;49.144;8.668;2023-05-29T03:51:38;4.37;;;2.77;;
15266;SDS011;7735;49.144;8.668;2023-05-29T03:54:05;4.80;;;2.63;;
15266;SDS011;7735;49.144;8.668;2023-05-29T03:56:32;4.13;;;2.77;;
15266;SDS011;7735;49.144;8.668;2023-05-29T03:59:00;4.30;;;2.53;;
15266;SDS011;7735;49.144;8.668;2023-05-29T04:01:28;3.07;;;2.27;;
15266;SDS011;7735;49.144;8.668;2023-05-29T04:03:55;3.87;;;2.43;;
15266;SDS011;7735;49.144;8.668;2023-05-29T04:06:21;4.33;;;2.47;;
15266;SDS011;7735;49.144;8.668;2023-05-29T04:08:48;6.70;;;3.10;;
15266;SDS011;7735;49.144;8.668;2023-05-29T04:11:15;5.07;;;3.10;;
15266;SDS011;7735;49.144;8.668;2023-05-29T04:13:41;5.10;;;2.67;;
15266;SDS011;7735;49.144;8.668;2023-05-29T04:16:08;5.03;;;2.80;;
15266;SDS011;7735;49.144;8.668;2023-05-29T04:18:36;4.47;;;2.40;;
15266;SDS011;7735;49.144;8.668;2023-05-29T04:21:03;4.30;;;2.60;;
15266;SDS011;7735;49.144;8.668;2023-05-29T04:23:30;4.43;;;2.67;;
15266;SDS011;7735;49.144;8.668;2023-05-29T04:25:56;4.67;;;2.73;;
15266;SDS011;7735;49.144;8.668;2023-05-29T04:28:26;5.43;;;2.63;;
15266;SDS011;7735;49.144;8.668;2023-05-29T04:30:53;4.27;;;2.60;;
15266;SDS011;7735;49.144;8.668;2023-05-29T04:33:20;6.23;;;2.87;;
15266;SDS011;7735;49.144;8.668;2023-05-29T04:35:49;4.60;;;2.57;;
15266;SDS011;7735;49.144;8.668;2023-05-29T04:38:16;4.80;;;2.70;;
15266;SDS011;7735;49.144;8.668;2023-05-29T04:40:44;4.00;;;2.67;;
15266;SDS011;7735;49.144;8.668;2023-05-29T04:43:10;3.63;;;2.30;;
15266;SDS011;7735;49.144;8.668;2023-05-29T04:45:37;5.33;;;2.90;;
15266;SDS011;7735;49.144;8.668;2023-05-29T04:48:04;3.47;;;2.63;;
15266;SDS011;7735;49.144;8.668;2023-05-29T04:50:30;3.53;;;2.50;;
15266;SDS011;7735;49.144;8.668;2023-05-29T04:52:58;3.20;;;2.30;;
15266;SDS011;7735;49.144;8.668;2023-05-29T04:55:25;3.83;;;2.60;;
15266;SDS011;7735;49.144;8.668;2023-05-29T04:57:52;3.40;;;2.40;;
15266;SDS011;7735;49.144;8.668;2023-05-29T05:00:19;7.00;;;2.70;;
15266;SDS011;7735;49.144;8.668;2023-05-29T05:02:46;4.83;;;2.63;;
15266;SDS011;7735;49.144;8.668;2023-05-29T05:05:13;4.90;;;3.07;;
15266;SDS011;7735;49.144;8.668;2023-05-29T05:07:40;5.17;;;3.07;;
15266;SDS011;7735;49.144;8.668;2023-05-29T05:10:09;4.73;;;2.80;;
15266;SDS011;7735;49.144;8.668;2023-05-29T05:12:36;4.70;;;2.80;;
15266;SDS011;7735;49.144;8.668;2023-05-29T05:15:03;3.97;;;2.77;;
15266;SDS011;7735;49.144;8.668;2023-05-29T05:17:30;5.30;;;3.00;;
15266;SDS011;7735;49.144;8.668;2023-05-29T05:19:57;5.97;;;2.77;;
15266;SDS011;7735;49.144;8.668;2023-05-29T05:22:24;5.17;;;2.67;;
15266;SDS011;7735;49.144;8.668;2023-05-29T05:24:50;3.90;;;2.53;;
15266;SDS011;7735;49.144;8.668;2023-05-29T05:27:20;4.33;;;2.80;;
15266;SDS011;7735;49.144;8.668;2023-05-29T05:29:48;3.60;;;2.77;;
15266;SDS011;7735;49.144;8.668;2023-05-29T05:32:14;3.90;;;2.70;;
15266;SDS011;7735;49.144;8.668;2023-05-29T05:34:41;5.10;;;2.30;;
15266;SDS011;7735;49.144;8.668;2023-05-29T05:37:15;6.13;;;2.60;;
15266;SDS011;7735;49.144;8.668;2023-05-29T05:39:42;6.43;;;3.17;;
15266;SDS011;7735;49.144;8.668;2023-05-29T05:42:09;5.00;;;2.90;;
15266;SDS011;7735;49.144;8.668;2023-05-29T05:44:37;4.57;;;2.50;;
15266;SDS011;7735;49.144;8.668;2023-05-29T05:47:03;5.27;;;2.80;;
15266;SDS011;7735;49.144;8.668;2023-05-29T05:49:30;5.27;;;2.77;;
15266;SDS011;7735;49.144;8.668;2023-05-29T05:51:57;9.13;;;5.63;;
15266;SDS011;7735;49.144;8.668;2023-05-29T05:54:24;5.40;;;3.83;;
15266;SDS011;7735;49.144;8.668;2023-05-29T05:56:50;6.53;;;2.83;;
15266;SDS011;7735;49.144;8.668;2023-05-29T05:59:25;4.50;;;2.80;;
15266;SDS011;7735;49.144;8.668;2023-05-29T06:01:54;3.93;;;2.53;;
15266;SDS011;7735;49.144;8.668;2023-05-29T06:04:21;4.53;;;2.80;;
15266;SDS011;7735;49.144;8.668;2023-05-29T06:06:47;6.90;;;2.90;;
15266;SDS011;7735;49.144;8.668;2023-05-29T06:09:14;5.10;;;3.30;;
15266;SDS011;7735;49.144;8.668;2023-05-29T06:11:41;6.33;;;2.93;;
15266;SDS011;7735;49.144;8.668;2023-05-29T06:14:08;3.90;;;2.60;;
15266;SDS011;7735;49.144;8.668;2023-05-29T06:16:35;5.03;;;2.83;;
15266;SDS011;7735;49.144;8.668;2023-05-29T06:19:03;7.43;;;3.20;;
15266;SDS011;7735;49.144;8.668;2023-05-29T06:21:29;4.33;;;2.97;;
15266;SDS011;7735;49.144;8.668;2023-05-29T06:24:03;5.53;;;2.70;;
15266;SDS011;7735;49.144;8.668;2023-05-29T06:26:40;6.67;;;2.47;;
15266;SDS011;7735;49.144;8.668;2023-05-29T06:29:09;5.20;;;2.43;;
15266;SDS011;7735;49.144;8.668;2023-05-29T06:31:36;4.53;;;2.60;;
15266;SDS011;7735;49.144;8.668;2023-05-29T06:34:10;6.20;;;2.97;;
15266;SDS011;7735;49.144;8.668;2023-05-29T06:36:37;4.20;;;2.20;;
15266;SDS011;7735;49.144;8.668;2023-05-29T06:39:03;4.13;;;2.57;;
15266;SDS011;7735;49.144;8.668;2023-05-29T06:41:30;8.00;;;2.83;;
15266;SDS011;7735;49.144;8.668;2023-05-29T06:43:57;4.23;;;2.30;;
15266;SDS011;7735;49.144;8.668;2023-05-29T06:46:26;4.70;;;2.50;;
15266;SDS011;7735;49.144;8.668;2023-05-29T06:48:53;3.83;;;2.53;;
15266;SDS011;7735;49.144;8.668;2023-05-29T06:51:28;3.37;;;2.30;;
15266;SDS011;7735;49.144;8.668;2023-05-29T06:53:57;5.73;;;2.53;;
15266;SDS011;7735;49.144;8.668;2023-05-29T06:56:24;3.93;;;2.33;;
15266;SDS011;7735;49.144;8.668;2023-05-29T06:58:51;2.80;;;2.00;;
15266;SDS011;7735;49.144;8.668;2023-05-29T07:04:10;8.27;;;2.43;;
15266;SDS011;7735;49.144;8.668;2023-05-29T07:06:38;2.87;;;2.20;;
15266;SDS011;7735;49.144;8.668;2023-05-29T07:09:05;4.83;;;2.37;;
15266;SDS011;7735;49.144;8.668;2023-05-29T07:11:32;4.73;;;2.53;;
15266;SDS011;7735;49.144;8.668;2023-05-29T07:14:02;3.03;;;2.07;;
15266;SDS011;7735;49.144;8.668;2023-05-29T07:16:28;5.53;;;2.00;;
15266;SDS011;7735;49.144;8.668;2023-05-29T07:18:55;5.77;;;2.33;;
15266;SDS011;7735;49.144;8.668;2023-05-29T07:21:32;4.43;;;2.00;;
15266;SDS011;7735;49.144;8.668;2023-05-29T07:27:24;4.60;;;1.97;;
15266;SDS011;7735;49.144;8.668;2023-05-29T07:29:53;2.47;;;2.00;;
15266;SDS011;7735;49.144;8.668;2023-05-29T07:32:20;5.40;;;2.37;;
15266;SDS011;7735;49.144;8.668;2023-05-29T07:34:46;4.13;;;2.50;;
15266;SDS011;7735;49.144;8.668;2023-05-29T07:37:21;5.93;;;3.93;;
15266;SDS011;7735;49.144;8.668;2023-05-29T07:39:50;4.00;;;2.40;;
15266;SDS011;7735;49.144;8.668;2023-05-29T07:42:18;6.53;;;2.80;;
15266;SDS011;7735;49.144;8.668;2023-05-29T07:44:45;6.47;;;2.40;;
15266;SDS011;7735;49.144;8.668;2023-05-29T07:47:13;4.10;;;2.30;;
15266;SDS011;7735;49.144;8.668;2023-05-29T07:49:40;5.80;;;2.33;;
15266;SDS011;7735;49.144;8.668;2023-05-29T07:52:07;3.87;;;2.30;;
15266;SDS011;7735;49.144;8.668;2023-05-29T07:54:34;5.53;;;2.60;;
15266;SDS011;7735;49.144;8.668;2023-05-29T07:57:01;4.47;;;2.33;;
15266;SDS011;7735;49.144;8.668;2023-05-29T07:59:32;7.83;;;2.80;;
15266;SDS011;7735;49.144;8.668;2023-05-29T08:02:00;5.30;;;2.50;;
15266;SDS011;7735;49.144;8.668;2023-05-29T08:04:28;4.35;;;2.70;;
15266;SDS011;7735;49.144;8.668;2023-05-29T08:06:54;5.90;;;2.53;;
15266;SDS011;7735;49.144;8.668;2023-05-29T08:09:21;4.70;;;2.20;;
15266;SDS011;7735;49.144;8.668;2023-05-29T08:11:48;3.50;;;2.40;;
15266;SDS011;7735;49.144;8.668;2023-05-29T08:14:14;4.43;;;2.70;;
15266;SDS011;7735;49.144;8.668;2023-05-29T08:19:42;3.83;;;2.43;;
15266;SDS011;7735;49.144;8.668;2023-05-29T08:22:11;3.13;;;2.20;;
15266;SDS011;7735;49.144;8.668;2023-05-29T08:24:39;4.20;;;2.33;;
15266;SDS011;7735;49.144;8.668;2023-05-29T08:27:05;3.90;;;2.33;;
15266;SDS011;7735;49.144;8.668;2023-05-29T08:29:32;4.17;;;2.27;;
15266;SDS011;7735;49.144;8.668;2023-05-29T08:31:59;3.63;;;2.57;;
15266;SDS011;7735;49.144;8.668;2023-05-29T08:34:27;3.20;;;2.27;;
15266;SDS011;7735;49.144;8.668;2023-05-29T08:36:53;4.30;;;2.77;;
15266;SDS011;7735;49.144;8.668;2023-05-29T08:39:21;3.70;;;2.03;;
15266;SDS011;7735;49.144;8.668;2023-05-29T08:41:50;3.97;;;1.97;;
15266;SDS011;7735;49.144;8.668;2023-05-29T08:44:22;4.07;;;2.43;;
15266;SDS011;7735;49.144;8.668;2023-05-29T08:46:49;2.23;;;1.70;;
15266;SDS011;7735;49.144;8.668;2023-05-29T08:49:20;3.60;;;2.50;;
15266;SDS011;7735;49.144;8.668;2023-05-29T08:51:49;2.93;;;2.40;;
15266;SDS011;7735;49.144;8.668;2023-05-29T08:54:23;3.70;;;2.27;;
15266;SDS011;7735;49.144;8.668;2023-05-29T08:56:50;4.03;;;2.43;;
15266;SDS011;7735;49.144;8.668;2023-05-29T08:59:17;2.67;;;2.10;;
15266;SDS011;7735;49.144;8.668;2023-05-29T09:01:44;6.67;;;2.40;;
15266;SDS011;7735;49.144;8.668;2023-05-29T09:04:11;5.27;;;2.50;;
15266;SDS011;7735;49.144;8.668;2023-05-29T09:06:37;5.50;;;2.73;;
15266;SDS011;7735;49.144;8.668;2023-05-29T09:09:07;5.17;;;2.70;;
15266;SDS011;7735;49.144;8.668;2023-05-29T09:11:34;3.90;;;2.43;;
15266;SDS011;7735;49.144;8.668;2023-05-29T09:14:01;4.10;;;2.90;;
15266;SDS011;7735;49.144;8.668;2023-05-29T09:16:28;4.67;;;2.37;;
15266;SDS011;7735;49.144;8.668;2023-05-29T09:19:03;5.17;;;2.80;;
15266;SDS011;7735;49.144;8.668;2023-05-29T09:21:31;4.83;;;2.40;;
15266;SDS011;7735;49.144;8.668;2023-05-29T09:24:02;4.63;;;2.40;;
15266;SDS011;7735;49.144;8.668;2023-05-29T09:26:31;4.03;;;2.53;;
15266;SDS011;7735;49.144;8.668;2023-05-29T09:28:58;4.73;;;2.50;;
15266;SDS011;7735;49.144;8.668;2023-05-29T09:31:24;4.73;;;2.43;;
15266;SDS011;7735;49.144;8.668;2023-05-29T09:33:51;4.57;;;2.57;;
15266;SDS011;7735;49.144;8.668;2023-05-29T09:36:21;3.10;;;2.43;;
15266;SDS011;7735;49.144;8.668;2023-05-29T09:38:48;4.10;;;2.40;;
15266;SDS011;7735;49.144;8.668;2023-05-29T09:41:20;4.40;;;2.23;;
15266;SDS011;7735;49.144;8.668;2023-05-29T09:43:50;4.47;;;2.33;;
15266;SDS011;7735;49.144;8.668;2023-05-29T09:46:18;4.90;;;2.50;;
15266;SDS011;7735;49.144;8.668;2023-05-29T09:48:45;5.80;;;2.92;;
15266;SDS011;7735;49.144;8.668;2023-05-29T09:51:18;4.30;;;2.47;;
15266;SDS011;7735;49.144;8.668;2023-05-29T09:53:47;4.80;;;2.50;;
15266;SDS011;7735;49.144;8.668;2023-05-29T09:56:15;3.80;;;2.20;;
15266;SDS011;7735;49.144;8.668;2023-05-29T09:58:44;4.40;;;2.50;;
15266;SDS011;7735;49.144;8.668;2023-05-29T10:01:12;4.33;;;2.53;;
15266;SDS011;7735;49.144;8.668;2023-05-29T10:03:40;4.97;;;2.77;;
15266;SDS011;7735;49.144;8.668;2023-05-29T10:06:07;3.67;;;2.20;;
15266;SDS011;7735;49.144;8.668;2023-05-29T10:08:45;5.40;;;2.30;;
15266;SDS011;7735;49.144;8.668;2023-05-29T10:11:14;5.87;;;2.60;;
15266;SDS011;7735;49.144;8.668;2023-05-29T10:13:44;3.20;;;2.07;;
15266;SDS011;7735;49.144;8.668;2023-05-29T10:16:16;3.77;;;2.03;;
15266;SDS011;7735;49.144;8.668;2023-05-29T10:18:47;4.63;;;2.60;;
15266;SDS011;7735;49.144;8.668;2023-05-29T10:21:19;6.10;;;2.63;;
15266;SDS011;7735;49.144;8.668;2023-05-29T10:23:48;4.10;;;2.63;;
15266;SDS011;7735;49.144;8.668;2023-05-29T10:26:19;2.77;;;2.27;;
15266;SDS011;7735;49.144;8.668;2023-05-29T10:28:49;3.40;;;2.30;;
15266;SDS011;7735;49.144;8.668;2023-05-29T10:31:24;3.73;;;2.20;;
15266;SDS011;7735;49.144;8.668;2023-05-29T10:34:00;4.40;;;2.30;;
15266;SDS011;7735;49.144;8.668;2023-05-29T10:36:37;3.57;;;2.30;;
15266;SDS011;7735;49.144;8.668;2023-05-29T10:39:08;5.17;;;2.23;;
15266;SDS011;7735;49.144;8.668;2023-05-29T10:41:35;5.47;;;2.70;;
15266;SDS011;7735;49.144;8.668;2023-05-29T10:47:09;5.03;;;2.47;;
15266;SDS011;7735;49.144;8.668;2023-05-29T10:49:37;5.77;;;2.43;;
15266;SDS011;7735;49.144;8.668;2023-05-29T10:55:18;3.53;;;2.37;;
15266;SDS011;7735;49.144;8.668;2023-05-29T10:57:48;7.47;;;2.47;;
15266;SDS011;7735;49.144;8.668;2023-05-29T11:00:29;3.17;;;2.23;;
15266;SDS011;7735;49.144;8.668;2023-05-29T11:02:58;4.70;;;2.20;;
15266;SDS011;7735;49.144;8.668;2023-05-29T11:05:28;3.37;;;1.90;;
15266;SDS011;7735;49.144;8.668;2023-05-29T11:07:55;3.70;;;2.40;;
15266;SDS011;7735;49.144;8.668;2023-05-29T11:10:42;4.93;;;2.27;;
15266;SDS011;7735;49.144;8.668;2023-05-29T11:13:10;4.23;;;2.00;;
15266;SDS011;7735;49.144;8.668;2023-05-29T11:15:48;4.23;;;2.70;;
15266;SDS011;7735;49.144;8.668;2023-05-29T11:18:42;4.00;;;2.50;;
15266;SDS011;7735;49.144;8.668;2023-05-29T11:21:28;4.40;;;2.60;;
15266;SDS011;7735;49.144;8.668;2023-05-29T11:23:58;7.53;;;2.60;;
15266;SDS011;7735;49.144;8.668;2023-05-29T11:26:30;4.80;;;2.63;;
15266;SDS011;7735;49.144;8.668;2023-05-29T11:32:10;4.23;;;2.57;;
15266;SDS011;7735;49.144;8.668;2023-05-29T11:34:44;5.17;;;2.77;;
15266;SDS011;7735;49.144;8.668;2023-05-29T11:37:14;4.80;;;2.70;;
15266;SDS011;7735;49.144;8.668;2023-05-29T11:39:41;3.77;;;2.43;;
15266;SDS011;7735;49.144;8.668;2023-05-29T11:45:21;5.63;;;2.63;;
15266;SDS011;7735;49.144;8.668;2023-05-29T11:47:52;4.57;;;2.57;;
15266;SDS011;7735;49.144;8.668;2023-05-29T11:50:21;3.37;;;2.33;;
15266;SDS011;7735;49.144;8.668;2023-05-29T11:52:58;4.43;;;2.57;;
15266;SDS011;7735;49.144;8.668;2023-05-29T11:55:26;4.23;;;2.47;;
15266;SDS011;7735;49.144;8.668;2023-05-29T11:57:55;5.10;;;2.63;;
15266;SDS011;7735;49.144;8.668;2023-05-29T12:00:24;3.67;;;2.60;;
15266;SDS011;7735;49.144;8.668;2023-05-29T12:02:51;3.90;;;2.63;;
15266;SDS011;7735;49.144;8.668;2023-05-29T12:05:18;3.33;;;2.47;;
15266;SDS011;7735;49.144;8.668;2023-05-29T12:07:49;3.63;;;2.60;;
15266;SDS011;7735;49.144;8.668;2023-05-29T12:10:18;4.27;;;2.37;;
15266;SDS011;7735;49.144;8.668;2023-05-29T12:12:47;3.53;;;2.40;;
15266;SDS011;7735;49.144;8.668;2023-05-29T12:15:14;3.93;;;2.40;;
15266;SDS011;7735;49.144;8.668;2023-05-29T12:17:42;3.70;;;2.20;;
15266;SDS011;7735;49.144;8.668;2023-05-29T12:20:10;2.47;;;2.23;;
15266;SDS011;7735;49.144;8.668;2023-05-29T12:22:38;5.63;;;2.70;;
15266;SDS011;7735;49.144;8.668;2023-05-29T12:25:09;4.47;;;2.57;;
15266;SDS011;7735;49.144;8.668;2023-05-29T12:27:37;3.63;;;2.40;;
15266;SDS011;7735;49.144;8.668;2023-05-29T12:30:08;4.57;;;2.70;;
15266;SDS011;7735;49.144;8.668;2023-05-29T12:32:36;4.80;;;3.87;;
15266;SDS011;7735;49.144;8.668;2023-05-29T12:35:10;5.80;;;2.40;;
15266;SDS011;7735;49.144;8.668;2023-05-29T12:37:44;3.80;;;2.20;;
15266;SDS011;7735;49.144;8.668;2023-05-29T12:40:15;5.63;;;2.60;;
15266;SDS011;7735;49.144;8.668;2023-05-29T12:42:43;6.70;;;2.40;;
15266;SDS011;7735;49.144;8.668;2023-05-29T12:45:10;4.00;;;2.43;;
15266;SDS011;7735;49.144;8.668;2023-05-29T12:47:37;4.13;;;2.30;;
15266;SDS011;7735;49.144;8.668;2023-05-29T12:50:23;3.90;;;2.40;;
15266;SDS011;7735;49.144;8.668;2023-05-29T12:52:55;3.80;;;2.37;;
15266;SDS011;7735;49.144;8.668;2023-05-29T12:55:24;3.80;;;2.10;;
15266;SDS011;7735;49.144;8.668;2023-05-29T12:57:50;3.90;;;2.30;;
15266;SDS011;7735;49.144;8.668;2023-05-29T13:00:18;3.70;;;2.47;;
15266;SDS011;7735;49.144;8.668;2023-05-29T13:02:46;4.00;;;2.30;;
15266;SDS011;7735;49.144;8.668;2023-05-29T13:05:13;3.93;;;1.97;;
15266;SDS011;7735;49.144;8.668;2023-05-29T13:07:40;4.07;;;2.33;;
15266;SDS011;7735;49.144;8.668;2023-05-29T13:10:08;3.30;;;2.17;;
15266;SDS011;7735;49.144;8.668;2023-05-29T13:12:36;3.03;;;2.30;;
15266;SDS011;7735;49.144;8.668;2023-05-29T13:15:03;5.13;;;2.10;;
15266;SDS011;7735;49.144;8.668;2023-05-29T13:17:30;4.00;;;2.10;;
15266;SDS011;7735;49.144;8.668;2023-05-29T13:19:57;5.17;;;2.60;;
15266;SDS011;7735;49.144;8.668;2023-05-29T13:22:23;4.00;;;2.13;;
15266;SDS011;7735;49.144;8.668;2023-05-29T13:24:55;3.47;;;2.13;;
15266;SDS011;7735;49.144;8.668;2023-05-29T13:27:22;3.60;;;2.13;;
15266;SDS011;7735;49.144;8.668;2023-05-29T13:29:50;4.27;;;2.50;;
15266;SDS011;7735;49.144;8.668;2023-05-29T13:32:31;3.30;;;2.13;;
15266;SDS011;7735;49.144;8.668;2023-05-29T13:34:58;2.90;;;1.90;;
15266;SDS011;7735;49.144;8.668;2023-05-29T13:37:25;5.00;;;2.43;;
15266;SDS011;7735;49.144;8.668;2023-05-29T13:39:52;2.83;;;2.00;;
15266;SDS011;7735;49.144;8.668;2023-05-29T13:42:19;4.63;;;2.43;;
15266;SDS011;7735;49.144;8.668;2023-05-29T13:44:47;3.30;;;1.80;;
15266;SDS011;7735;49.144;8.668;2023-05-29T13:47:15;3.53;;;2.13;;
15266;SDS011;7735;49.144;8.668;2023-05-29T13:49:42;4.17;;;2.30;;
15266;SDS011;7735;49.144;8.668;2023-05-29T13:52:09;5.77;;;2.23;;
15266;SDS011;7735;49.144;8.668;2023-05-29T13:54:36;5.27;;;2.20;;
15266;SDS011;7735;49.144;8.668;2023-05-29T13:57:03;3.37;;;2.37;;
15266;SDS011;7735;49.144;8.668;2023-05-29T13:59:30;3.63;;;2.10;;
15266;SDS011;7735;49.144;8.668;2023-05-29T14:01:57;2.73;;;2.00;;
15266;SDS011;7735;49.144;8.668;2023-05-29T14:04:25;4.87;;;2.23;;
15266;SDS011;7735;49.144;8.668;2023-05-29T14:06:52;2.40;;;2.00;;
15266;SDS011;7735;49.144;8.668;2023-05-29T14:09:19;3.90;;;2.23;;
15266;SDS011;7735;49.144;8.668;2023-05-29T14:11:52;4.13;;;2.13;;
15266;SDS011;7735;49.144;8.668;2023-05-29T14:14:19;2.72;;;2.05;;
15266;SDS011;7735;49.144;8.668;2023-05-29T14:16:46;3.80;;;2.10;;
15266;SDS011;7735;49.144;8.668;2023-05-29T14:19:12;3.50;;;2.23;;
15266;SDS011;7735;49.144;8.668;2023-05-29T14:21:40;2.83;;;2.08;;
15266;SDS011;7735;49.144;8.668;2023-05-29T14:24:07;3.10;;;2.13;;
15266;SDS011;7735;49.144;8.668;2023-05-29T14:26:34;3.00;;;2.13;;
15266;SDS011;7735;49.144;8.668;2023-05-29T14:29:01;4.20;;;2.22;;
15266;SDS011;7735;49.144;8.668;2023-05-29T14:31:28;4.55;;;2.28;;
15266;SDS011;7735;49.144;8.668;2023-05-29T14:33:55;2.75;;;2.00;;
15266;SDS011;7735;49.144;8.668;2023-05-29T14:36:22;3.20;;;2.00;;
15266;SDS011;7735;49.144;8.668;2023-05-29T14:38:50;2.83;;;2.13;;
15266;SDS011;7735;49.144;8.668;2023-05-29T14:41:16;3.28;;;2.05;;
15266;SDS011;7735;49.144;8.668;2023-05-29T14:43:44;2.33;;;1.92;;
15266;SDS011;7735;49.144;8.668;2023-05-29T14:46:11;4.78;;;1.80;;
15266;SDS011;7735;49.144;8.668;2023-05-29T14:48:38;3.05;;;2.20;;
15266;SDS011;7735;49.144;8.668;2023-05-29T14:51:05;3.38;;;1.90;;
15266;SDS011;7735;49.144;8.668;2023-05-29T14:53:32;3.17;;;2.33;;
15266;SDS011;7735;49.144;8.668;2023-05-29T14:56:00;3.00;;;2.20;;
15266;SDS011;7735;49.144;8.668;2023-05-29T14:58:27;4.47;;;2.53;;
15266;SDS011;7735;49.144;8.668;2023-05-29T15:00:53;3.30;;;2.30;;
15266;SDS011;7735;49.144;8.668;2023-05-29T15:03:20;3.88;;;2.20;;
15266;SDS011;7735;49.144;8.668;2023-05-29T15:05:51;3.58;;;2.10;;
15266;SDS011;7735;49.144;8.668;2023-05-29T15:08:17;5.60;;;2.25;;
15266;SDS011;7735;49.144;8.668;2023-05-29T15:10:44;3.30;;;2.22;;
15266;SDS011;7735;49.144;8.668;2023-05-29T15:13:12;3.47;;;2.30;;
15266;SDS011;7735;49.144;8.668;2023-05-29T15:15:39;2.20;;;1.95;;
15266;SDS011;7735;49.144;8.668;2023-05-29T15:18:14;2.35;;;1.85;;
15266;SDS011;7735;49.144;8.668;2023-05-29T15:20:41;1.70;;;1.60;;
15266;SDS011;7735;49.144;8.668;2023-05-29T15:23:11;2.80;;;2.10;;
15266;SDS011;7735;49.144;8.668;2023-05-29T15:25:38;2.92;;;2.05;;
15266;SDS011;7735;49.144;8.668;2023-05-29T15:28:04;2.85;;;1.83;;
15266;SDS011;7735;49.144;8.668;2023-05-29T15:30:32;3.10;;;2.08;;